sensor_id;sensor_type;location;lat;lon;timestamp;P1;durP1;ratioP1;P2;durP2;ratioP2
21634;SDS011;10979;48.306;9.830;2022-12-19T00:02:11;0.50;;;0.50;;
21634;SDS011;10979;48.306;9.830;2022-12-19T00:04:36;0.60;;;0.60;;
21634;SDS011;10979;48.306;9.830;2022-12-19T00:07:02;0.60;;;0.60;;
21634;SDS011;10979;48.306;9.830;2022-12-19T00:09:27;0.52;;;0.52;;
21634;SDS011;10979;48.306;9.830;2022-12-19T00:11:53;0.60;;;0.60;;
21634;SDS011;10979;48.306;9.830;2022-12-19T00:14:18;0.52;;;0.52;;
21634;SDS011;10979;48.306;9.830;2022-12-19T00:16:44;0.60;;;0.60;;
21634;SDS011;10979;48.306;9.830;2022-12-19T00:19:10;0.60;;;0.60;;
21634;SDS011;10979;48.306;9.830;2022-12-19T00:21:36;0.55;;;0.55;;
21634;SDS011;10979;48.306;9.830;2022-12-19T00:24:05;0.50;;;0.50;;
21634;SDS011;10979;48.306;9.830;2022-12-19T00:26:33;0.60;;;0.60;;
21634;SDS011;10979;48.306;9.830;2022-12-19T00:29:01;0.50;;;0.50;;
21634;SDS011;10979;48.306;9.830;2022-12-19T00:31:30;0.60;;;0.60;;
21634;SDS011;10979;48.306;9.830;2022-12-19T00:33:59;0.60;;;0.60;;
21634;SDS011;10979;48.306;9.830;2022-12-19T00:36:29;0.50;;;0.50;;
21634;SDS011;10979;48.306;9.830;2022-12-19T00:38:58;0.60;;;0.60;;
21634;SDS011;10979;48.306;9.830;2022-12-19T00:41:25;0.50;;;0.50;;
21634;SDS011;10979;48.306;9.830;2022-12-19T00:44:02;0.50;;;0.50;;
21634;SDS011;10979;48.306;9.830;2022-12-19T00:46:33;0.50;;;0.50;;
21634;SDS011;10979;48.306;9.830;2022-12-19T00:49:00;0.50;;;0.50;;
21634;SDS011;10979;48.306;9.830;2022-12-19T00:51:27;0.50;;;0.50;;
21634;SDS011;10979;48.306;9.830;2022-12-19T00:53:55;0.50;;;0.50;;
21634;SDS011;10979;48.306;9.830;2022-12-19T00:56:23;0.60;;;0.60;;
21634;SDS011;10979;48.306;9.830;2022-12-19T00:58:50;0.50;;;0.50;;
21634;SDS011;10979;48.306;9.830;2022-12-19T01:01:18;0.50;;;0.50;;
21634;SDS011;10979;48.306;9.830;2022-12-19T01:03:56;0.50;;;0.50;;
21634;SDS011;10979;48.306;9.830;2022-12-19T01:06:23;0.50;;;0.50;;
21634;SDS011;10979;48.306;9.830;2022-12-19T01:08:48;0.50;;;0.50;;
21634;SDS011;10979;48.306;9.830;2022-12-19T01:11:14;0.50;;;0.50;;
21634;SDS011;10979;48.306;9.830;2022-12-19T01:13:40;0.50;;;0.50;;
21634;SDS011;10979;48.306;9.830;2022-12-19T01:16:10;0.50;;;0.50;;
21634;SDS011;10979;48.306;9.830;2022-12-19T01:18:37;0.50;;;0.50;;
21634;SDS011;10979;48.306;9.830;2022-12-19T01:21:04;0.50;;;0.50;;
21634;SDS011;10979;48.306;9.830;2022-12-19T01:23:32;0.50;;;0.50;;
21634;SDS011;10979;48.306;9.830;2022-12-19T01:25:59;0.50;;;0.50;;
21634;SDS011;10979;48.306;9.830;2022-12-19T01:28:24;0.50;;;0.50;;
21634;SDS011;10979;48.306;9.830;2022-12-19T01:30:50;0.60;;;0.60;;
21634;SDS011;10979;48.306;9.830;2022-12-19T01:33:16;0.60;;;0.60;;
21634;SDS011;10979;48.306;9.830;2022-12-19T01:35:45;0.52;;;0.52;;
21634;SDS011;10979;48.306;9.830;2022-12-19T01:38:13;0.50;;;0.50;;
21634;SDS011;10979;48.306;9.830;2022-12-19T01:40:47;0.50;;;0.50;;
21634;SDS011;10979;48.306;9.830;2022-12-19T01:43:14;0.50;;;0.50;;
21634;SDS011;10979;48.306;9.830;2022-12-19T01:45:41;0.50;;;0.50;;
21634;SDS011;10979;48.306;9.830;2022-12-19T01:50:43;0.60;;;0.60;;
21634;SDS011;10979;48.306;9.830;2022-12-19T01:53:20;0.60;;;0.60;;
21634;SDS011;10979;48.306;9.830;2022-12-19T01:55:49;0.50;;;0.50;;
21634;SDS011;10979;48.306;9.830;2022-12-19T01:58:15;0.50;;;0.50;;
21634;SDS011;10979;48.306;9.830;2022-12-19T02:00:42;0.50;;;0.50;;
21634;SDS011;10979;48.306;9.830;2022-12-19T02:03:10;0.50;;;0.50;;
21634;SDS011;10979;48.306;9.830;2022-12-19T02:05:55;0.50;;;0.50;;
21634;SDS011;10979;48.306;9.830;2022-12-19T02:08:23;0.60;;;0.60;;
21634;SDS011;10979;48.306;9.830;2022-12-19T02:10:50;0.50;;;0.50;;
21634;SDS011;10979;48.306;9.830;2022-12-19T02:13:15;0.60;;;0.60;;
21634;SDS011;10979;48.306;9.830;2022-12-19T02:26:47;0.50;;;0.50;;
21634;SDS011;10979;48.306;9.830;2022-12-19T02:34:36;0.50;;;0.50;;
21634;SDS011;10979;48.306;9.830;2022-12-19T02:37:33;0.50;;;0.50;;
21634;SDS011;10979;48.306;9.830;2022-12-19T02:40:09;0.60;;;0.60;;
21634;SDS011;10979;48.306;9.830;2022-12-19T02:42:56;0.60;;;0.60;;
21634;SDS011;10979;48.306;9.830;2022-12-19T02:45:25;0.50;;;0.50;;
21634;SDS011;10979;48.306;9.830;2022-12-19T02:47:58;0.60;;;0.60;;
21634;SDS011;10979;48.306;9.830;2022-12-19T02:50:34;0.50;;;0.50;;
21634;SDS011;10979;48.306;9.830;2022-12-19T02:53:10;0.50;;;0.50;;
21634;SDS011;10979;48.306;9.830;2022-12-19T02:55:42;0.60;;;0.60;;
21634;SDS011;10979;48.306;9.830;2022-12-19T03:00:56;0.50;;;0.50;;
21634;SDS011;10979;48.306;9.830;2022-12-19T03:03:36;0.60;;;0.60;;
21634;SDS011;10979;48.306;9.830;2022-12-19T03:08:51;0.50;;;0.50;;
21634;SDS011;10979;48.306;9.830;2022-12-19T03:11:23;0.50;;;0.50;;
21634;SDS011;10979;48.306;9.830;2022-12-19T03:13:55;0.60;;;0.60;;
21634;SDS011;10979;48.306;9.830;2022-12-19T03:16:24;0.50;;;0.50;;
21634;SDS011;10979;48.306;9.830;2022-12-19T03:18:51;0.60;;;0.60;;
21634;SDS011;10979;48.306;9.830;2022-12-19T03:21:20;0.60;;;0.60;;
21634;SDS011;10979;48.306;9.830;2022-12-19T03:23:58;0.50;;;0.50;;
21634;SDS011;10979;48.306;9.830;2022-12-19T03:26:26;0.50;;;0.50;;
21634;SDS011;10979;48.306;9.830;2022-12-19T03:31:31;0.50;;;0.50;;
21634;SDS011;10979;48.306;9.830;2022-12-19T03:34:00;0.50;;;0.50;;
21634;SDS011;10979;48.306;9.830;2022-12-19T03:36:30;0.50;;;0.50;;
21634;SDS011;10979;48.306;9.830;2022-12-19T03:39:01;0.50;;;0.50;;
21634;SDS011;10979;48.306;9.830;2022-12-19T03:41:30;0.50;;;0.50;;
21634;SDS011;10979;48.306;9.830;2022-12-19T03:44:15;0.50;;;0.50;;
21634;SDS011;10979;48.306;9.830;2022-12-19T03:46:45;0.50;;;0.50;;
21634;SDS011;10979;48.306;9.830;2022-12-19T03:49:17;0.50;;;0.50;;
21634;SDS011;10979;48.306;9.830;2022-12-19T03:51:59;0.50;;;0.50;;
21634;SDS011;10979;48.306;9.830;2022-12-19T03:54:44;0.50;;;0.50;;
21634;SDS011;10979;48.306;9.830;2022-12-19T03:57:22;0.50;;;0.50;;
21634;SDS011;10979;48.306;9.830;2022-12-19T04:00:04;0.50;;;0.50;;
21634;SDS011;10979;48.306;9.830;2022-12-19T04:02:32;0.50;;;0.50;;
21634;SDS011;10979;48.306;9.830;2022-12-19T04:05:06;0.50;;;0.50;;
21634;SDS011;10979;48.306;9.830;2022-12-19T04:07:35;0.50;;;0.50;;
21634;SDS011;10979;48.306;9.830;2022-12-19T04:10:06;0.50;;;0.50;;
21634;SDS011;10979;48.306;9.830;2022-12-19T04:12:36;0.50;;;0.50;;
21634;SDS011;10979;48.306;9.830;2022-12-19T04:15:05;0.50;;;0.50;;
21634;SDS011;10979;48.306;9.830;2022-12-19T04:17:40;0.50;;;0.50;;
21634;SDS011;10979;48.306;9.830;2022-12-19T04:20:11;0.50;;;0.50;;
21634;SDS011;10979;48.306;9.830;2022-12-19T04:25:28;0.50;;;0.50;;
21634;SDS011;10979;48.306;9.830;2022-12-19T04:28:00;0.50;;;0.50;;
21634;SDS011;10979;48.306;9.830;2022-12-19T04:30:30;0.50;;;0.50;;
21634;SDS011;10979;48.306;9.830;2022-12-19T04:32:57;0.50;;;0.50;;
21634;SDS011;10979;48.306;9.830;2022-12-19T04:35:23;0.50;;;0.50;;
21634;SDS011;10979;48.306;9.830;2022-12-19T04:37:50;0.50;;;0.50;;
21634;SDS011;10979;48.306;9.830;2022-12-19T04:40:16;0.50;;;0.50;;
21634;SDS011;10979;48.306;9.830;2022-12-19T04:42:41;0.50;;;0.50;;
21634;SDS011;10979;48.306;9.830;2022-12-19T04:45:07;0.50;;;0.50;;
21634;SDS011;10979;48.306;9.830;2022-12-19T04:47:33;0.50;;;0.50;;
21634;SDS011;10979;48.306;9.830;2022-12-19T04:49:59;0.50;;;0.50;;
21634;SDS011;10979;48.306;9.830;2022-12-19T04:52:24;0.50;;;0.50;;
21634;SDS011;10979;48.306;9.830;2022-12-19T04:54:50;0.50;;;0.50;;
21634;SDS011;10979;48.306;9.830;2022-12-19T04:57:15;0.50;;;0.50;;
21634;SDS011;10979;48.306;9.830;2022-12-19T04:59:41;0.50;;;0.50;;
21634;SDS011;10979;48.306;9.830;2022-12-19T05:02:06;0.50;;;0.50;;
21634;SDS011;10979;48.306;9.830;2022-12-19T05:04:32;0.50;;;0.50;;
21634;SDS011;10979;48.306;9.830;2022-12-19T05:06:58;0.50;;;0.50;;
21634;SDS011;10979;48.306;9.830;2022-12-19T05:09:24;0.50;;;0.50;;
21634;SDS011;10979;48.306;9.830;2022-12-19T05:11:49;0.50;;;0.50;;
21634;SDS011;10979;48.306;9.830;2022-12-19T05:14:15;0.50;;;0.50;;
21634;SDS011;10979;48.306;9.830;2022-12-19T05:16:40;0.50;;;0.50;;
21634;SDS011;10979;48.306;9.830;2022-12-19T05:19:06;0.50;;;0.50;;
21634;SDS011;10979;48.306;9.830;2022-12-19T05:21:32;0.50;;;0.50;;
21634;SDS011;10979;48.306;9.830;2022-12-19T05:23:57;0.50;;;0.50;;
21634;SDS011;10979;48.306;9.830;2022-12-19T05:26:23;0.50;;;0.50;;
21634;SDS011;10979;48.306;9.830;2022-12-19T05:28:49;0.50;;;0.50;;
21634;SDS011;10979;48.306;9.830;2022-12-19T05:31:16;0.50;;;0.50;;
21634;SDS011;10979;48.306;9.830;2022-12-19T05:33:43;0.50;;;0.50;;
21634;SDS011;10979;48.306;9.830;2022-12-19T05:36:10;0.50;;;0.50;;
21634;SDS011;10979;48.306;9.830;2022-12-19T05:38:36;0.50;;;0.50;;
21634;SDS011;10979;48.306;9.830;2022-12-19T05:41:09;0.50;;;0.50;;
21634;SDS011;10979;48.306;9.830;2022-12-19T05:43:39;0.50;;;0.50;;
21634;SDS011;10979;48.306;9.830;2022-12-19T05:46:05;0.50;;;0.50;;
21634;SDS011;10979;48.306;9.830;2022-12-19T05:48:32;0.50;;;0.50;;
21634;SDS011;10979;48.306;9.830;2022-12-19T05:50:58;0.50;;;0.50;;
21634;SDS011;10979;48.306;9.830;2022-12-19T05:53:24;0.50;;;0.50;;
21634;SDS011;10979;48.306;9.830;2022-12-19T05:55:52;0.50;;;0.50;;
21634;SDS011;10979;48.306;9.830;2022-12-19T05:58:27;0.40;;;0.40;;
21634;SDS011;10979;48.306;9.830;2022-12-19T06:00:53;0.50;;;0.50;;
21634;SDS011;10979;48.306;9.830;2022-12-19T06:03:18;0.40;;;0.40;;
21634;SDS011;10979;48.306;9.830;2022-12-19T06:05:44;0.50;;;0.50;;
21634;SDS011;10979;48.306;9.830;2022-12-19T06:08:10;0.40;;;0.40;;
21634;SDS011;10979;48.306;9.830;2022-12-19T06:10:35;0.45;;;0.45;;
21634;SDS011;10979;48.306;9.830;2022-12-19T06:13:01;0.50;;;0.50;;
21634;SDS011;10979;48.306;9.830;2022-12-19T06:15:26;0.40;;;0.40;;
21634;SDS011;10979;48.306;9.830;2022-12-19T06:17:52;0.50;;;0.50;;
21634;SDS011;10979;48.306;9.830;2022-12-19T06:20:18;0.50;;;0.50;;
21634;SDS011;10979;48.306;9.830;2022-12-19T06:22:44;0.50;;;0.50;;
21634;SDS011;10979;48.306;9.830;2022-12-19T06:25:12;0.50;;;0.50;;
21634;SDS011;10979;48.306;9.830;2022-12-19T06:27:38;0.50;;;0.50;;
21634;SDS011;10979;48.306;9.830;2022-12-19T06:30:03;0.40;;;0.40;;
21634;SDS011;10979;48.306;9.830;2022-12-19T06:32:29;0.40;;;0.40;;
21634;SDS011;10979;48.306;9.830;2022-12-19T06:34:55;0.40;;;0.40;;
21634;SDS011;10979;48.306;9.830;2022-12-19T06:37:20;0.40;;;0.40;;
21634;SDS011;10979;48.306;9.830;2022-12-19T06:39:46;0.40;;;0.40;;
21634;SDS011;10979;48.306;9.830;2022-12-19T06:42:11;0.47;;;0.47;;
21634;SDS011;10979;48.306;9.830;2022-12-19T06:44:50;0.40;;;0.40;;
21634;SDS011;10979;48.306;9.830;2022-12-19T06:47:16;0.50;;;0.50;;
21634;SDS011;10979;48.306;9.830;2022-12-19T06:49:42;0.50;;;0.50;;
21634;SDS011;10979;48.306;9.830;2022-12-19T06:52:10;0.50;;;0.50;;
21634;SDS011;10979;48.306;9.830;2022-12-19T06:54:36;0.50;;;0.50;;
21634;SDS011;10979;48.306;9.830;2022-12-19T06:57:02;0.50;;;0.50;;
21634;SDS011;10979;48.306;9.830;2022-12-19T06:59:27;0.50;;;0.50;;
21634;SDS011;10979;48.306;9.830;2022-12-19T07:01:55;0.50;;;0.50;;
21634;SDS011;10979;48.306;9.830;2022-12-19T07:07:11;0.50;;;0.50;;
21634;SDS011;10979;48.306;9.830;2022-12-19T07:09:37;0.50;;;0.50;;
21634;SDS011;10979;48.306;9.830;2022-12-19T07:12:03;0.40;;;0.40;;
21634;SDS011;10979;48.306;9.830;2022-12-19T07:14:31;0.50;;;0.50;;
21634;SDS011;10979;48.306;9.830;2022-12-19T07:16:57;0.50;;;0.50;;
21634;SDS011;10979;48.306;9.830;2022-12-19T07:19:24;0.50;;;0.50;;
21634;SDS011;10979;48.306;9.830;2022-12-19T07:21:51;0.50;;;0.50;;
21634;SDS011;10979;48.306;9.830;2022-12-19T07:24:16;0.40;;;0.40;;
21634;SDS011;10979;48.306;9.830;2022-12-19T07:26:42;0.40;;;0.40;;
21634;SDS011;10979;48.306;9.830;2022-12-19T07:29:08;0.40;;;0.40;;
21634;SDS011;10979;48.306;9.830;2022-12-19T07:31:35;0.40;;;0.40;;
21634;SDS011;10979;48.306;9.830;2022-12-19T07:34:00;0.40;;;0.40;;
21634;SDS011;10979;48.306;9.830;2022-12-19T07:36:26;0.50;;;0.50;;
21634;SDS011;10979;48.306;9.830;2022-12-19T07:38:51;0.40;;;0.40;;
21634;SDS011;10979;48.306;9.830;2022-12-19T07:41:17;0.40;;;0.40;;
21634;SDS011;10979;48.306;9.830;2022-12-19T07:43:42;0.40;;;0.40;;
21634;SDS011;10979;48.306;9.830;2022-12-19T07:46:09;0.40;;;0.40;;
21634;SDS011;10979;48.306;9.830;2022-12-19T07:48:35;0.40;;;0.40;;
21634;SDS011;10979;48.306;9.830;2022-12-19T07:51:00;0.40;;;0.40;;
21634;SDS011;10979;48.306;9.830;2022-12-19T07:53:29;0.40;;;0.40;;
21634;SDS011;10979;48.306;9.830;2022-12-19T07:55:55;0.40;;;0.40;;
21634;SDS011;10979;48.306;9.830;2022-12-19T07:58:21;0.50;;;0.50;;
21634;SDS011;10979;48.306;9.830;2022-12-19T08:00:53;0.40;;;0.40;;
21634;SDS011;10979;48.306;9.830;2022-12-19T08:03:22;0.40;;;0.40;;
21634;SDS011;10979;48.306;9.830;2022-12-19T08:05:48;0.40;;;0.40;;
21634;SDS011;10979;48.306;9.830;2022-12-19T08:08:14;0.40;;;0.40;;
21634;SDS011;10979;48.306;9.830;2022-12-19T08:10:40;0.40;;;0.40;;
21634;SDS011;10979;48.306;9.830;2022-12-19T08:13:06;0.40;;;0.40;;
21634;SDS011;10979;48.306;9.830;2022-12-19T08:15:31;0.40;;;0.40;;
21634;SDS011;10979;48.306;9.830;2022-12-19T08:17:57;0.40;;;0.40;;
21634;SDS011;10979;48.306;9.830;2022-12-19T08:20:23;0.40;;;0.40;;
21634;SDS011;10979;48.306;9.830;2022-12-19T08:22:48;0.40;;;0.40;;
21634;SDS011;10979;48.306;9.830;2022-12-19T08:25:14;0.40;;;0.40;;
21634;SDS011;10979;48.306;9.830;2022-12-19T08:27:40;0.40;;;0.40;;
21634;SDS011;10979;48.306;9.830;2022-12-19T08:30:06;0.40;;;0.40;;
21634;SDS011;10979;48.306;9.830;2022-12-19T08:32:32;0.40;;;0.40;;
21634;SDS011;10979;48.306;9.830;2022-12-19T08:34:58;0.40;;;0.40;;
21634;SDS011;10979;48.306;9.830;2022-12-19T08:37:24;0.40;;;0.40;;
21634;SDS011;10979;48.306;9.830;2022-12-19T08:39:49;0.40;;;0.40;;
21634;SDS011;10979;48.306;9.830;2022-12-19T08:42:15;0.40;;;0.40;;
21634;SDS011;10979;48.306;9.830;2022-12-19T08:44:41;0.40;;;0.40;;
21634;SDS011;10979;48.306;9.830;2022-12-19T08:47:06;0.40;;;0.40;;
21634;SDS011;10979;48.306;9.830;2022-12-19T08:49:32;0.40;;;0.40;;
21634;SDS011;10979;48.306;9.830;2022-12-19T08:51:57;0.40;;;0.40;;
21634;SDS011;10979;48.306;9.830;2022-12-19T08:54:23;0.40;;;0.40;;
21634;SDS011;10979;48.306;9.830;2022-12-19T08:56:48;0.40;;;0.40;;
21634;SDS011;10979;48.306;9.830;2022-12-19T08:59:17;0.40;;;0.40;;
21634;SDS011;10979;48.306;9.830;2022-12-19T09:01:43;0.40;;;0.40;;
21634;SDS011;10979;48.306;9.830;2022-12-19T09:04:08;0.40;;;0.40;;
21634;SDS011;10979;48.306;9.830;2022-12-19T09:06:34;0.40;;;0.40;;
21634;SDS011;10979;48.306;9.830;2022-12-19T09:09:01;0.40;;;0.40;;
21634;SDS011;10979;48.306;9.830;2022-12-19T09:11:28;0.40;;;0.40;;
21634;SDS011;10979;48.306;9.830;2022-12-19T09:13:54;0.40;;;0.40;;
21634;SDS011;10979;48.306;9.830;2022-12-19T09:16:21;0.40;;;0.40;;
21634;SDS011;10979;48.306;9.830;2022-12-19T09:18:49;0.40;;;0.40;;
21634;SDS011;10979;48.306;9.830;2022-12-19T09:21:16;0.40;;;0.40;;
21634;SDS011;10979;48.306;9.830;2022-12-19T09:23:50;0.40;;;0.40;;
21634;SDS011;10979;48.306;9.830;2022-12-19T09:26:17;0.40;;;0.40;;
21634;SDS011;10979;48.306;9.830;2022-12-19T09:28:45;0.40;;;0.40;;
21634;SDS011;10979;48.306;9.830;2022-12-19T09:31:15;0.40;;;0.40;;
21634;SDS011;10979;48.306;9.830;2022-12-19T09:33:43;0.40;;;0.40;;
21634;SDS011;10979;48.306;9.830;2022-12-19T09:36:13;0.40;;;0.40;;
21634;SDS011;10979;48.306;9.830;2022-12-19T09:38:40;0.40;;;0.40;;
21634;SDS011;10979;48.306;9.830;2022-12-19T09:44:29;0.40;;;0.40;;
21634;SDS011;10979;48.306;9.830;2022-12-19T09:46:58;0.40;;;0.40;;
21634;SDS011;10979;48.306;9.830;2022-12-19T09:49:34;0.40;;;0.40;;
21634;SDS011;10979;48.306;9.830;2022-12-19T09:54:55;0.40;;;0.40;;
21634;SDS011;10979;48.306;9.830;2022-12-19T09:57:43;0.40;;;0.40;;
21634;SDS011;10979;48.306;9.830;2022-12-19T10:00:20;0.40;;;0.40;;
21634;SDS011;10979;48.306;9.830;2022-12-19T10:02:55;0.40;;;0.40;;
21634;SDS011;10979;48.306;9.830;2022-12-19T10:05:35;0.40;;;0.40;;
21634;SDS011;10979;48.306;9.830;2022-12-19T10:08:21;0.40;;;0.40;;
21634;SDS011;10979;48.306;9.830;2022-12-19T10:27:45;0.40;;;0.40;;
21634;SDS011;10979;48.306;9.830;2022-12-19T10:30:18;0.40;;;0.40;;
21634;SDS011;10979;48.306;9.830;2022-12-19T10:32:56;0.40;;;0.40;;
21634;SDS011;10979;48.306;9.830;2022-12-19T10:35:31;0.40;;;0.40;;
21634;SDS011;10979;48.306;9.830;2022-12-19T10:40:29;0.40;;;0.40;;
21634;SDS011;10979;48.306;9.830;2022-12-19T10:45:57;0.40;;;0.40;;
21634;SDS011;10979;48.306;9.830;2022-12-19T10:48:26;0.40;;;0.40;;
21634;SDS011;10979;48.306;9.830;2022-12-19T10:50:52;0.40;;;0.40;;
21634;SDS011;10979;48.306;9.830;2022-12-19T10:53:24;0.40;;;0.40;;
21634;SDS011;10979;48.306;9.830;2022-12-19T10:55:54;0.30;;;0.30;;
21634;SDS011;10979;48.306;9.830;2022-12-19T10:58:35;0.40;;;0.40;;
21634;SDS011;10979;48.306;9.830;2022-12-19T11:01:11;0.40;;;0.40;;
21634;SDS011;10979;48.306;9.830;2022-12-19T11:03:47;0.30;;;0.30;;
21634;SDS011;10979;48.306;9.830;2022-12-19T11:09:20;0.30;;;0.30;;
21634;SDS011;10979;48.306;9.830;2022-12-19T11:14:32;0.40;;;0.40;;
21634;SDS011;10979;48.306;9.830;2022-12-19T11:16:58;0.40;;;0.40;;
21634;SDS011;10979;48.306;9.830;2022-12-19T11:19:26;0.40;;;0.40;;
21634;SDS011;10979;48.306;9.830;2022-12-19T11:22:02;0.30;;;0.30;;
21634;SDS011;10979;48.306;9.830;2022-12-19T11:24:34;0.35;;;0.35;;
21634;SDS011;10979;48.306;9.830;2022-12-19T11:27:08;0.30;;;0.30;;
21634;SDS011;10979;48.306;9.830;2022-12-19T11:32:43;0.40;;;0.40;;
21634;SDS011;10979;48.306;9.830;2022-12-19T11:35:21;0.40;;;0.40;;
21634;SDS011;10979;48.306;9.830;2022-12-19T11:37:56;0.40;;;0.40;;
21634;SDS011;10979;48.306;9.830;2022-12-19T11:43:05;0.30;;;0.30;;
21634;SDS011;10979;48.306;9.830;2022-12-19T11:45:57;0.30;;;0.30;;
21634;SDS011;10979;48.306;9.830;2022-12-19T11:56:37;0.30;;;0.30;;
21634;SDS011;10979;48.306;9.830;2022-12-19T11:59:10;0.30;;;0.30;;
21634;SDS011;10979;48.306;9.830;2022-12-19T12:01:59;0.30;;;0.30;;
21634;SDS011;10979;48.306;9.830;2022-12-19T12:04:53;0.30;;;0.30;;
21634;SDS011;10979;48.306;9.830;2022-12-19T12:07:40;0.30;;;0.30;;
21634;SDS011;10979;48.306;9.830;2022-12-19T12:10:16;0.30;;;0.30;;
21634;SDS011;10979;48.306;9.830;2022-12-19T12:12:47;0.40;;;0.40;;
21634;SDS011;10979;48.306;9.830;2022-12-19T12:15:46;0.30;;;0.30;;
21634;SDS011;10979;48.306;9.830;2022-12-19T12:21:15;0.30;;;0.30;;
21634;SDS011;10979;48.306;9.830;2022-12-19T12:24:01;0.30;;;0.30;;
21634;SDS011;10979;48.306;9.830;2022-12-19T12:26:42;0.30;;;0.30;;
21634;SDS011;10979;48.306;9.830;2022-12-19T12:29:23;0.30;;;0.30;;
21634;SDS011;10979;48.306;9.830;2022-12-19T12:35:08;0.30;;;0.30;;
21634;SDS011;10979;48.306;9.830;2022-12-19T12:43:16;0.30;;;0.30;;
21634;SDS011;10979;48.306;9.830;2022-12-19T12:49:26;0.30;;;0.30;;
21634;SDS011;10979;48.306;9.830;2022-12-19T12:51:59;0.40;;;0.40;;
21634;SDS011;10979;48.306;9.830;2022-12-19T12:54:34;0.30;;;0.30;;
21634;SDS011;10979;48.306;9.830;2022-12-19T12:57:03;0.30;;;0.30;;
21634;SDS011;10979;48.306;9.830;2022-12-19T12:59:29;0.30;;;0.30;;
21634;SDS011;10979;48.306;9.830;2022-12-19T13:01:59;0.30;;;0.30;;
21634;SDS011;10979;48.306;9.830;2022-12-19T13:07:26;0.30;;;0.30;;
21634;SDS011;10979;48.306;9.830;2022-12-19T13:09:53;0.40;;;0.40;;
21634;SDS011;10979;48.306;9.830;2022-12-19T13:12:51;0.30;;;0.30;;
21634;SDS011;10979;48.306;9.830;2022-12-19T13:23:02;0.30;;;0.30;;
21634;SDS011;10979;48.306;9.830;2022-12-19T13:28:12;0.30;;;0.30;;
21634;SDS011;10979;48.306;9.830;2022-12-19T13:31:11;0.30;;;0.30;;
21634;SDS011;10979;48.306;9.830;2022-12-19T13:42:00;0.35;;;0.35;;
21634;SDS011;10979;48.306;9.830;2022-12-19T13:44:45;0.40;;;0.40;;
21634;SDS011;10979;48.306;9.830;2022-12-19T13:47:14;0.40;;;0.40;;
21634;SDS011;10979;48.306;9.830;2022-12-19T13:49:40;0.40;;;0.40;;
21634;SDS011;10979;48.306;9.830;2022-12-19T13:52:08;0.40;;;0.40;;
21634;SDS011;10979;48.306;9.830;2022-12-19T13:54:43;0.30;;;0.30;;
21634;SDS011;10979;48.306;9.830;2022-12-19T13:57:29;0.30;;;0.30;;
21634;SDS011;10979;48.306;9.830;2022-12-19T13:59:59;0.30;;;0.30;;
21634;SDS011;10979;48.306;9.830;2022-12-19T14:02:31;0.30;;;0.30;;
21634;SDS011;10979;48.306;9.830;2022-12-19T14:04:59;0.30;;;0.30;;
21634;SDS011;10979;48.306;9.830;2022-12-19T14:09:56;0.40;;;0.40;;
21634;SDS011;10979;48.306;9.830;2022-12-19T14:12:24;0.40;;;0.40;;
21634;SDS011;10979;48.306;9.830;2022-12-19T14:15:31;0.40;;;0.40;;
21634;SDS011;10979;48.306;9.830;2022-12-19T14:18:22;0.40;;;0.40;;
21634;SDS011;10979;48.306;9.830;2022-12-19T14:23:41;0.40;;;0.40;;
21634;SDS011;10979;48.306;9.830;2022-12-19T14:26:07;0.30;;;0.30;;
21634;SDS011;10979;48.306;9.830;2022-12-19T14:31:04;0.40;;;0.40;;
21634;SDS011;10979;48.306;9.830;2022-12-19T14:33:37;0.40;;;0.40;;
21634;SDS011;10979;48.306;9.830;2022-12-19T14:36:06;0.40;;;0.40;;
21634;SDS011;10979;48.306;9.830;2022-12-19T14:38:32;0.40;;;0.40;;
21634;SDS011;10979;48.306;9.830;2022-12-19T14:40:59;0.40;;;0.40;;
21634;SDS011;10979;48.306;9.830;2022-12-19T14:43:26;0.40;;;0.40;;
21634;SDS011;10979;48.306;9.830;2022-12-19T14:51:14;0.40;;;0.40;;
21634;SDS011;10979;48.306;9.830;2022-12-19T14:56:43;0.30;;;0.30;;
21634;SDS011;10979;48.306;9.830;2022-12-19T14:59:16;0.40;;;0.40;;
21634;SDS011;10979;48.306;9.830;2022-12-19T15:01:48;0.40;;;0.40;;
21634;SDS011;10979;48.306;9.830;2022-12-19T15:04:28;0.40;;;0.40;;
21634;SDS011;10979;48.306;9.830;2022-12-19T15:06:57;0.40;;;0.40;;
21634;SDS011;10979;48.306;9.830;2022-12-19T15:09:25;0.35;;;0.35;;
21634;SDS011;10979;48.306;9.830;2022-12-19T15:11:52;0.40;;;0.40;;
21634;SDS011;10979;48.306;9.830;2022-12-19T15:14:46;0.40;;;0.40;;
21634;SDS011;10979;48.306;9.830;2022-12-19T15:17:18;0.40;;;0.40;;
21634;SDS011;10979;48.306;9.830;2022-12-19T15:19:46;0.40;;;0.40;;
21634;SDS011;10979;48.306;9.830;2022-12-19T15:22:12;0.40;;;0.40;;
21634;SDS011;10979;48.306;9.830;2022-12-19T15:24:38;0.30;;;0.30;;
21634;SDS011;10979;48.306;9.830;2022-12-19T15:27:03;0.40;;;0.40;;
21634;SDS011;10979;48.306;9.830;2022-12-19T15:29:29;0.40;;;0.40;;
21634;SDS011;10979;48.306;9.830;2022-12-19T15:31:56;0.40;;;0.40;;
21634;SDS011;10979;48.306;9.830;2022-12-19T15:36:50;0.40;;;0.40;;
21634;SDS011;10979;48.306;9.830;2022-12-19T15:39:17;0.40;;;0.40;;
21634;SDS011;10979;48.306;9.830;2022-12-19T15:41:43;0.40;;;0.40;;
21634;SDS011;10979;48.306;9.830;2022-12-19T15:44:31;0.40;;;0.40;;
21634;SDS011;10979;48.306;9.830;2022-12-19T15:46:59;0.40;;;0.40;;
21634;SDS011;10979;48.306;9.830;2022-12-19T15:49:26;0.40;;;0.40;;
21634;SDS011;10979;48.306;9.830;2022-12-19T15:51:52;0.40;;;0.40;;
21634;SDS011;10979;48.306;9.830;2022-12-19T15:54:17;0.40;;;0.40;;
21634;SDS011;10979;48.306;9.830;2022-12-19T15:56:50;0.40;;;0.40;;
21634;SDS011;10979;48.306;9.830;2022-12-19T15:59:26;0.40;;;0.40;;
21634;SDS011;10979;48.306;9.830;2022-12-19T16:01:55;0.40;;;0.40;;
21634;SDS011;10979;48.306;9.830;2022-12-19T16:04:22;0.40;;;0.40;;
21634;SDS011;10979;48.306;9.830;2022-12-19T16:06:49;0.50;;;0.50;;
21634;SDS011;10979;48.306;9.830;2022-12-19T16:09:24;0.40;;;0.40;;
21634;SDS011;10979;48.306;9.830;2022-12-19T16:11:52;0.40;;;0.40;;
21634;SDS011;10979;48.306;9.830;2022-12-19T16:14:19;0.40;;;0.40;;
21634;SDS011;10979;48.306;9.830;2022-12-19T16:16:47;0.40;;;0.40;;
21634;SDS011;10979;48.306;9.830;2022-12-19T16:21:50;0.40;;;0.40;;
21634;SDS011;10979;48.306;9.830;2022-12-19T16:24:16;0.40;;;0.40;;
21634;SDS011;10979;48.306;9.830;2022-12-19T16:26:42;0.40;;;0.40;;
21634;SDS011;10979;48.306;9.830;2022-12-19T16:29:26;0.50;;;0.50;;
21634;SDS011;10979;48.306;9.830;2022-12-19T16:31:53;0.50;;;0.50;;
21634;SDS011;10979;48.306;9.830;2022-12-19T16:34:20;0.50;;;0.50;;
21634;SDS011;10979;48.306;9.830;2022-12-19T16:36:48;0.40;;;0.40;;
21634;SDS011;10979;48.306;9.830;2022-12-19T16:39:14;0.40;;;0.40;;
21634;SDS011;10979;48.306;9.830;2022-12-19T16:41:40;0.40;;;0.40;;
21634;SDS011;10979;48.306;9.830;2022-12-19T16:44:12;0.40;;;0.40;;
21634;SDS011;10979;48.306;9.830;2022-12-19T16:46:44;0.40;;;0.40;;
21634;SDS011;10979;48.306;9.830;2022-12-19T16:49:14;0.40;;;0.40;;
21634;SDS011;10979;48.306;9.830;2022-12-19T16:51:41;0.40;;;0.40;;
21634;SDS011;10979;48.306;9.830;2022-12-19T16:54:08;0.40;;;0.40;;
21634;SDS011;10979;48.306;9.830;2022-12-19T16:56:40;0.40;;;0.40;;
21634;SDS011;10979;48.306;9.830;2022-12-19T16:59:15;0.50;;;0.50;;
21634;SDS011;10979;48.306;9.830;2022-12-19T17:01:48;0.40;;;0.40;;
21634;SDS011;10979;48.306;9.830;2022-12-19T17:04:15;0.40;;;0.40;;
21634;SDS011;10979;48.306;9.830;2022-12-19T17:06:48;0.45;;;0.45;;
21634;SDS011;10979;48.306;9.830;2022-12-19T17:09:24;0.50;;;0.50;;
21634;SDS011;10979;48.306;9.830;2022-12-19T17:11:54;0.50;;;0.50;;
21634;SDS011;10979;48.306;9.830;2022-12-19T17:14:23;0.40;;;0.40;;
21634;SDS011;10979;48.306;9.830;2022-12-19T17:16:51;0.50;;;0.50;;
21634;SDS011;10979;48.306;9.830;2022-12-19T17:19:31;0.43;;;0.43;;
21634;SDS011;10979;48.306;9.830;2022-12-19T17:22:04;0.50;;;0.50;;
21634;SDS011;10979;48.306;9.830;2022-12-19T17:24:36;0.50;;;0.50;;